createdAt,value
2022-07-25T00:00:54.407Z,99.88
2022-07-25T00:03:28.481Z,100.00
2022-07-25T00:06:01.610Z,100.00
2022-07-25T00:08:34.152Z,100.00
2022-07-25T00:11:06.885Z,100.00
2022-07-25T00:13:39.199Z,100.00
2022-07-25T00:16:12.111Z,100.00
2022-07-25T00:18:44.815Z,100.00
2022-07-25T00:21:17.135Z,100.00
2022-07-25T00:23:49.465Z,100.00
2022-07-25T00:26:22.311Z,100.00
2022-07-25T00:28:54.634Z,100.00
2022-07-25T00:31:28.112Z,100.00
2022-07-25T00:34:00.696Z,100.00
2022-07-25T00:36:33.240Z,100.00
2022-07-25T00:39:05.936Z,100.00
2022-07-25T00:41:38.884Z,100.00
2022-07-25T00:44:22.959Z,100.00
2022-07-25T00:47:00.236Z,100.00
2022-07-25T00:49:33.266Z,100.00
2022-07-25T00:52:06.007Z,100.00
2022-07-25T00:54:39.475Z,100.00
2022-07-25T00:57:12.377Z,100.00
2022-07-25T00:59:44.796Z,100.00
2022-07-25T01:02:17.444Z,100.00
2022-07-25T01:04:49.941Z,100.00
2022-07-25T01:07:23.023Z,100.00
2022-07-25T01:09:56.114Z,100.00
2022-07-25T01:12:29.526Z,100.00
2022-07-25T01:15:01.936Z,100.00
2022-07-25T01:17:34.686Z,100.00
2022-07-25T01:20:08.265Z,100.00
2022-07-25T01:22:38.846Z,100.00
2022-07-25T01:25:11.833Z,100.00
2022-07-25T01:27:46.503Z,100.00
2022-07-25T01:30:22.194Z,100.00
2022-07-25T01:32:53.417Z,100.00
2022-07-25T01:35:26.227Z,100.00
2022-07-25T01:37:58.695Z,100.00
2022-07-25T01:40:32.987Z,100.00
2022-07-25T01:43:05.617Z,100.00
2022-07-25T01:45:39.258Z,100.00
2022-07-25T01:48:09.949Z,100.00
2022-07-25T01:50:42.242Z,100.00
2022-07-25T01:53:15.025Z,100.00
2022-07-25T01:55:48.306Z,100.00
2022-07-25T01:58:21.305Z,100.00
2022-07-25T02:00:52.226Z,100.00
2022-07-25T02:03:32.025Z,100.00
2022-07-25T02:06:08.355Z,100.00
2022-07-25T02:08:43.728Z,100.00
2022-07-25T02:11:16.456Z,100.00
2022-07-25T02:13:49.508Z,100.00
2022-07-25T02:16:20.309Z,100.00
2022-07-25T02:19:01.788Z,100.00
2022-07-25T02:21:34.585Z,100.00
2022-07-25T02:24:08.481Z,100.00
2022-07-25T02:26:41.548Z,100.00
2022-07-25T02:29:13.991Z,100.00
2022-07-25T02:31:46.616Z,100.00
2022-07-25T02:34:19.030Z,100.00
2022-07-25T02:36:53.900Z,100.00
2022-07-25T02:39:26.685Z,100.00
2022-07-25T02:41:59.239Z,100.00
2022-07-25T02:44:32.399Z,100.00
2022-07-25T02:47:04.966Z,100.00
2022-07-25T02:49:37.355Z,100.00
2022-07-25T02:52:10.039Z,100.00
2022-07-25T02:54:42.547Z,100.00
2022-07-25T02:57:14.947Z,100.00
2022-07-25T02:59:47.477Z,100.00
2022-07-25T03:02:20.037Z,100.00
2022-07-25T03:04:52.825Z,100.00
2022-07-25T03:07:25.247Z,100.00
2022-07-25T03:09:58.575Z,100.00
2022-07-25T03:12:34.276Z,100.00
2022-07-25T03:15:08.532Z,100.00
2022-07-25T03:17:40.817Z,100.00
2022-07-25T03:20:13.992Z,100.00
2022-07-25T03:22:46.567Z,100.00
2022-07-25T03:25:22.078Z,100.00
2022-07-25T03:27:54.889Z,100.00
2022-07-25T03:30:27.388Z,100.00
2022-07-25T03:32:59.916Z,100.00
2022-07-25T03:35:32.862Z,100.00
2022-07-25T03:38:08.097Z,100.00
2022-07-25T03:40:41.056Z,100.00
2022-07-25T03:43:13.533Z,100.00
2022-07-25T03:45:46.587Z,100.00
2022-07-25T03:48:19.237Z,100.00
2022-07-25T03:50:52.157Z,100.00
2022-07-25T03:53:24.867Z,100.00
2022-07-25T03:55:57.176Z,100.00
2022-07-25T03:58:31.050Z,100.00
2022-07-25T04:01:03.411Z,100.00
2022-07-25T04:03:36.695Z,100.00
2022-07-25T04:06:09.938Z,100.00
2022-07-25T04:08:42.816Z,100.00
2022-07-25T04:11:15.790Z,100.00
2022-07-25T04:13:48.582Z,100.00
2022-07-25T04:16:22.791Z,100.00
2022-07-25T04:18:56.287Z,100.00
2022-07-25T04:21:28.067Z,100.00
2022-07-25T04:24:02.053Z,100.00
2022-07-25T04:26:36.229Z,100.00
2022-07-25T04:29:09.178Z,100.00
2022-07-25T04:31:43.876Z,100.00
2022-07-25T04:34:18.622Z,100.00
2022-07-25T04:36:51.488Z,100.00
2022-07-25T04:39:25.290Z,100.00
2022-07-25T04:41:57.868Z,100.00
2022-07-25T04:44:32.177Z,100.00
2022-07-25T04:47:04.836Z,100.00
2022-07-25T04:49:37.434Z,100.00
2022-07-25T04:52:10.027Z,100.00
2022-07-25T04:54:42.394Z,100.00
2022-07-25T04:57:14.686Z,100.00
2022-07-25T04:59:46.958Z,100.00
2022-07-25T05:02:19.552Z,100.00
2022-07-25T05:04:52.224Z,100.00
2022-07-25T05:07:24.895Z,100.00
2022-07-25T05:09:59.047Z,100.00
2022-07-25T05:12:32.137Z,100.00
2022-07-25T05:15:06.409Z,100.00
2022-07-25T05:17:38.972Z,100.00
2022-07-25T05:20:13.793Z,100.00
2022-07-25T05:22:46.416Z,100.00
2022-07-25T05:25:19.326Z,100.00
2022-07-25T05:27:52.176Z,100.00
2022-07-25T05:30:24.635Z,100.00
2022-07-25T05:32:57.196Z,100.00
2022-07-25T05:35:29.638Z,100.00
2022-07-25T05:38:04.876Z,100.00
2022-07-25T05:40:37.396Z,100.00
2022-07-25T05:43:10.374Z,100.00
2022-07-25T05:45:43.535Z,100.00
2022-07-25T05:48:16.456Z,100.00
2022-07-25T05:50:48.762Z,100.00
2022-07-25T05:53:21.312Z,100.00
2022-07-25T05:55:53.755Z,100.00
2022-07-25T05:58:29.746Z,100.00
2022-07-25T06:01:02.807Z,100.00
2022-07-25T06:03:36.594Z,100.00
2022-07-25T06:06:11.469Z,100.00
2022-07-25T06:08:44.615Z,100.00
2022-07-25T06:11:17.918Z,99.41
2022-07-25T06:13:53.607Z,99.00
2022-07-25T06:16:26.307Z,97.76
2022-07-25T06:18:58.965Z,96.50
2022-07-25T06:21:31.476Z,96.34
2022-07-25T06:24:05.102Z,94.20
2022-07-25T06:26:35.667Z,93.45
2022-07-25T06:29:08.441Z,94.05
2022-07-25T06:31:38.973Z,93.52
2022-07-25T06:34:11.655Z,94.41
2022-07-25T06:36:44.489Z,92.42
2022-07-25T06:39:17.047Z,90.02
2022-07-25T06:41:49.918Z,90.46
2022-07-25T06:44:23.351Z,89.69
2022-07-25T06:46:55.676Z,89.49
2022-07-25T06:49:31.407Z,90.10
2022-07-25T06:52:02.023Z,88.89
2022-07-25T06:54:34.645Z,89.17
2022-07-25T06:57:07.348Z,90.04
2022-07-25T06:59:40.374Z,88.15
2022-07-25T07:02:10.946Z,88.33
2022-07-25T07:04:43.294Z,89.07
2022-07-25T07:07:16.658Z,87.20
2022-07-25T07:09:49.078Z,86.87
2022-07-25T07:12:21.586Z,86.29
2022-07-25T07:14:54.506Z,86.47
2022-07-25T07:17:26.885Z,87.57
2022-07-25T07:19:59.639Z,84.45
2022-07-25T07:22:31.916Z,83.90
2022-07-25T07:25:05.614Z,85.25
2022-07-25T07:27:38.866Z,81.86
2022-07-25T07:30:15.358Z,82.13
2022-07-25T07:32:48.736Z,81.69
2022-07-25T07:35:21.473Z,82.83
2022-07-25T07:37:55.341Z,81.97
2022-07-25T07:40:28.687Z,83.20
2022-07-25T07:43:03.906Z,78.86
2022-07-25T07:45:36.876Z,81.29
2022-07-25T07:48:10.062Z,78.69
2022-07-25T07:50:43.618Z,81.11
2022-07-25T07:53:15.904Z,78.39
2022-07-25T07:55:49.234Z,79.06
2022-07-25T07:58:22.915Z,79.80
2022-07-25T08:00:55.346Z,76.82
2022-07-25T08:03:28.177Z,75.68
2022-07-25T08:05:58.877Z,75.40
2022-07-25T08:08:31.755Z,74.15
2022-07-25T08:11:05.486Z,72.58
2022-07-25T08:13:38.491Z,73.17
2022-07-25T08:16:12.379Z,71.91
2022-07-25T08:18:44.856Z,64.77
2022-07-25T08:21:17.336Z,65.44
2022-07-25T08:23:49.667Z,63.94
2022-07-25T08:26:22.104Z,63.49
2022-07-25T08:29:11.108Z,65.46
2022-07-25T08:31:47.231Z,63.35
2022-07-25T08:34:17.776Z,64.76
2022-07-25T08:36:50.264Z,61.20
2022-07-25T08:39:22.789Z,59.56
2022-07-25T08:41:55.848Z,58.81
2022-07-25T08:44:35.976Z,58.75
2022-07-25T08:47:09.662Z,57.55
2022-07-25T08:49:43.384Z,57.60
2022-07-25T08:52:16.804Z,59.63
2022-07-25T08:54:50.945Z,56.72
2022-07-25T08:57:23.350Z,56.41
2022-07-25T08:59:58.035Z,53.11
2022-07-25T09:05:38.987Z,54.30
2022-07-25T09:08:13.677Z,55.67
2022-07-25T09:10:49.843Z,56.10
2022-07-25T09:13:24.039Z,52.82
2022-07-25T09:18:45.730Z,53.15
2022-07-25T09:21:20.368Z,53.41
2022-07-25T09:23:52.817Z,52.47
2022-07-25T09:29:20.428Z,54.04
2022-07-25T09:35:15.866Z,52.57
2022-07-25T09:37:48.473Z,54.61
2022-07-25T09:40:21.269Z,52.67
2022-07-25T09:46:19.609Z,51.34
2022-07-25T09:49:11.302Z,50.31
2022-07-25T09:51:44.202Z,49.62
2022-07-25T09:54:15.176Z,48.52
2022-07-25T09:56:47.708Z,49.52
2022-07-25T10:05:17.357Z,48.86
2022-07-25T10:07:57.410Z,50.47
2022-07-25T10:10:32.770Z,46.96
2022-07-25T10:13:34.651Z,46.33
2022-07-25T10:16:25.722Z,47.25
2022-07-25T10:19:15.467Z,48.40
2022-07-25T10:27:49.048Z,49.69
2022-07-25T10:30:25.543Z,47.92
2022-07-25T10:33:06.806Z,48.91
2022-07-25T10:36:07.523Z,45.48
2022-07-25T10:38:58.655Z,44.38
2022-07-25T10:42:01.354Z,46.63
2022-07-25T10:44:51.117Z,43.19
2022-07-25T10:51:00.491Z,43.68
2022-07-25T10:53:46.670Z,43.42
2022-07-25T10:59:51.755Z,43.40
2022-07-25T11:05:13.466Z,43.55
2022-07-25T11:08:20.007Z,43.11
2022-07-25T11:10:54.406Z,42.95
2022-07-25T11:13:27.386Z,42.26
2022-07-25T11:16:16.437Z,41.61
2022-07-25T11:18:49.785Z,42.17
2022-07-25T11:21:23.047Z,42.34
2022-07-25T11:23:56.142Z,43.16
2022-07-25T11:26:57.856Z,39.07
2022-07-25T11:29:57.751Z,38.09
2022-07-25T11:33:03.017Z,39.55
2022-07-25T11:35:53.999Z,39.02
2022-07-25T11:41:43.525Z,37.02
2022-07-25T11:44:16.425Z,37.45
2022-07-25T11:46:54.255Z,37.62
2022-07-25T11:49:56.745Z,37.88
2022-07-25T11:53:00.832Z,37.75
2022-07-25T11:55:51.768Z,35.36
2022-07-25T12:01:17.225Z,38.55
2022-07-25T12:04:16.120Z,37.44
2022-07-25T12:06:50.604Z,37.15
2022-07-25T12:12:50.685Z,38.45
2022-07-25T12:15:25.366Z,39.06
2022-07-25T12:17:59.786Z,38.49
2022-07-25T12:20:34.105Z,36.32
2022-07-25T12:23:09.776Z,36.03
2022-07-25T12:25:43.836Z,36.34
2022-07-25T12:28:16.763Z,35.01
2022-07-25T12:30:56.046Z,36.03
2022-07-25T12:33:29.378Z,38.00
2022-07-25T12:36:08.078Z,36.50
2022-07-25T12:38:41.145Z,36.08
2022-07-25T12:41:17.494Z,36.30
2022-07-25T12:43:50.297Z,35.61
2022-07-25T12:46:21.468Z,36.08
2022-07-25T12:48:54.418Z,36.88
2022-07-25T12:51:27.136Z,36.20
2022-07-25T12:53:59.928Z,36.27
2022-07-25T12:56:32.784Z,35.26
2022-07-25T12:59:08.218Z,35.99
2022-07-25T13:01:41.023Z,34.55
2022-07-25T13:04:11.651Z,35.64
2022-07-25T13:06:44.317Z,33.40
2022-07-25T13:09:17.565Z,34.05
2022-07-25T13:11:50.227Z,35.21
2022-07-25T13:14:23.285Z,35.18
2022-07-25T13:16:55.736Z,36.26
2022-07-25T13:19:28.980Z,34.28
2022-07-25T13:22:01.686Z,35.09
2022-07-25T13:24:34.967Z,34.40
2022-07-25T13:27:06.265Z,33.74
2022-07-25T13:29:38.884Z,32.14
2022-07-25T13:32:12.015Z,33.12
2022-07-25T13:34:44.712Z,33.72
2022-07-25T13:37:17.193Z,34.24
2022-07-25T13:39:52.805Z,33.50
2022-07-25T13:42:25.254Z,34.06
2022-07-25T13:44:57.954Z,34.52
2022-07-25T13:47:30.708Z,33.53
2022-07-25T13:50:03.497Z,32.76
2022-07-25T13:52:35.985Z,32.75
2022-07-25T13:55:07.887Z,32.33
2022-07-25T13:57:40.056Z,32.71
2022-07-25T14:00:15.066Z,33.56
2022-07-25T14:02:47.757Z,33.95
2022-07-25T14:05:20.537Z,33.04
2022-07-25T14:07:55.928Z,32.43
2022-07-25T14:10:28.717Z,33.71
2022-07-25T14:13:01.258Z,32.43
2022-07-25T14:15:33.987Z,32.89
2022-07-25T14:18:06.553Z,32.20
2022-07-25T14:20:37.438Z,30.69
2022-07-25T14:23:10.045Z,31.41
2022-07-25T14:25:43.236Z,30.24
2022-07-25T14:28:18.322Z,30.80
2022-07-25T14:30:51.298Z,30.58
2022-07-25T14:33:24.905Z,30.26
2022-07-25T14:35:57.810Z,30.33
2022-07-25T14:38:30.845Z,33.36
2022-07-25T14:41:03.286Z,30.39
2022-07-25T14:43:35.728Z,31.27
2022-07-25T14:46:09.466Z,29.36
2022-07-25T14:48:42.165Z,29.57
2022-07-25T14:51:14.822Z,29.40
2022-07-25T14:53:52.756Z,28.57
2022-07-25T14:56:31.635Z,28.39
2022-07-25T14:59:05.183Z,29.13
2022-07-25T15:01:38.267Z,28.86
2022-07-25T15:04:10.966Z,29.37
2022-07-25T15:06:43.581Z,29.59
2022-07-25T15:09:16.208Z,30.21
2022-07-25T15:11:52.207Z,30.49
2022-07-25T15:14:24.618Z,31.57
2022-07-25T15:16:57.110Z,31.37
2022-07-25T15:19:28.547Z,31.08
2022-07-25T15:22:06.326Z,31.53
2022-07-25T15:25:04.320Z,31.96
2022-07-25T15:27:31.707Z,31.96
2022-07-25T15:30:02.466Z,31.77
2022-07-25T15:32:35.416Z,32.52
2022-07-25T15:35:09.917Z,31.89
2022-07-25T15:37:43.008Z,31.88
2022-07-25T15:40:17.149Z,32.33
2022-07-25T15:42:49.727Z,32.20
2022-07-25T15:45:33.614Z,31.76
2022-07-25T15:48:09.996Z,31.56
2022-07-25T15:50:45.024Z,32.32
2022-07-25T15:53:18.116Z,33.65
2022-07-25T15:55:52.974Z,34.23
2022-07-25T15:58:27.327Z,33.64
2022-07-25T16:00:59.775Z,34.22
2022-07-25T16:03:33.755Z,33.60
2022-07-25T16:06:06.787Z,33.43
2022-07-25T16:08:40.198Z,34.17
2022-07-25T16:11:12.615Z,34.34
2022-07-25T16:13:45.457Z,34.27
2022-07-25T16:16:17.859Z,34.21
2022-07-25T16:18:50.725Z,34.46
2022-07-25T16:21:23.142Z,34.65
2022-07-25T16:23:56.066Z,34.44
2022-07-25T16:26:28.427Z,34.14
2022-07-25T16:28:59.596Z,33.65
2022-07-25T16:31:32.414Z,34.45
2022-07-25T16:34:05.336Z,33.86
2022-07-25T16:36:38.506Z,34.46
2022-07-25T16:39:11.123Z,34.72
2022-07-25T16:41:44.618Z,35.36
2022-07-25T16:44:17.315Z,35.74
2022-07-25T16:46:49.959Z,35.31
2022-07-25T16:49:23.281Z,35.67
2022-07-25T16:51:55.898Z,35.96
2022-07-25T16:54:28.917Z,36.11
2022-07-25T16:57:04.033Z,35.77
2022-07-25T16:59:37.987Z,36.33
2022-07-25T17:02:11.586Z,36.36
2022-07-25T17:04:44.605Z,36.89
2022-07-25T17:07:17.277Z,36.78
2022-07-25T17:09:50.997Z,36.44
2022-07-25T17:12:26.492Z,36.55
2022-07-25T17:14:59.580Z,36.04
2022-07-25T17:17:34.977Z,36.12
2022-07-25T17:20:08.807Z,36.63
2022-07-25T17:22:41.404Z,37.42
2022-07-25T17:25:14.568Z,38.42
2022-07-25T17:27:47.327Z,39.00
2022-07-25T17:30:19.768Z,37.64
2022-07-25T17:32:53.618Z,39.04
2022-07-25T17:35:26.306Z,38.17
2022-07-25T17:37:58.845Z,38.40
2022-07-25T17:40:32.567Z,38.47
2022-07-25T17:43:05.035Z,38.22
2022-07-25T17:45:40.058Z,38.52
2022-07-25T17:48:12.567Z,38.42
2022-07-25T17:50:46.308Z,39.09
2022-07-25T17:53:20.287Z,38.76
2022-07-25T17:55:55.535Z,38.68
2022-07-25T17:58:27.845Z,39.80
2022-07-25T18:01:08.439Z,40.05
2022-07-25T18:03:43.207Z,40.04
2022-07-25T18:06:14.227Z,41.47
2022-07-25T18:08:46.649Z,43.56
2022-07-25T18:11:19.445Z,44.28
2022-07-25T18:13:52.904Z,43.52
2022-07-25T18:16:27.074Z,44.92
2022-07-25T18:18:59.535Z,43.85
2022-07-25T18:21:32.997Z,43.85
2022-07-25T18:24:08.221Z,45.24
2022-07-25T18:26:41.166Z,44.56
2022-07-25T18:29:14.125Z,45.75
2022-07-25T18:31:44.854Z,46.96
2022-07-25T18:34:17.204Z,46.63
2022-07-25T18:36:50.127Z,48.57
2022-07-25T18:39:22.324Z,47.94
2022-07-25T18:41:54.957Z,50.90
2022-07-25T18:44:27.227Z,49.29
2022-07-25T18:47:00.186Z,51.66
2022-07-25T18:49:54.926Z,52.50
2022-07-25T18:52:47.416Z,52.47
2022-07-25T18:55:19.995Z,54.28
2022-07-25T18:57:52.727Z,55.78
2022-07-25T19:00:23.515Z,56.59
2022-07-25T19:02:55.896Z,58.65
2022-07-25T19:05:28.299Z,58.71
2022-07-25T19:08:01.292Z,57.77
2022-07-25T19:10:33.639Z,59.06
2022-07-25T19:13:06.487Z,59.55
2022-07-25T19:15:39.297Z,59.56
2022-07-25T19:18:12.306Z,57.98
2022-07-25T19:20:45.786Z,59.31
2022-07-25T19:23:19.113Z,59.37
2022-07-25T19:25:52.696Z,58.29
2022-07-25T19:28:25.706Z,61.51
2022-07-25T19:30:58.326Z,57.94
2022-07-25T19:33:35.950Z,57.20
2022-07-25T19:36:09.874Z,56.58
2022-07-25T19:38:42.355Z,56.05
2022-07-25T19:41:15.639Z,55.37
2022-07-25T19:43:48.332Z,54.21
2022-07-25T19:46:25.426Z,55.21
2022-07-25T19:48:58.021Z,55.79
2022-07-25T19:51:30.787Z,56.80
2022-07-25T19:54:05.303Z,58.21
2022-07-25T19:56:39.545Z,57.05
2022-07-25T19:59:12.135Z,56.54
2022-07-25T20:01:47.073Z,56.18
2022-07-25T20:04:23.542Z,54.38
2022-07-25T20:06:56.086Z,53.98
2022-07-25T20:09:29.659Z,53.88
2022-07-25T20:12:02.755Z,53.43
2022-07-25T20:14:33.422Z,53.71
2022-07-25T20:17:05.797Z,53.65
2022-07-25T20:19:39.441Z,53.35
2022-07-25T20:22:12.138Z,53.07
2022-07-25T20:24:45.073Z,52.79
2022-07-25T20:27:17.436Z,52.94
2022-07-25T20:29:51.488Z,52.93
2022-07-25T20:32:24.509Z,53.43
2022-07-25T20:34:57.637Z,53.75
2022-07-25T20:37:29.997Z,54.00
2022-07-25T20:40:02.397Z,54.47
2022-07-25T20:42:34.979Z,54.67
2022-07-25T20:45:09.225Z,55.04
2022-07-25T20:47:41.526Z,55.38
2022-07-25T20:50:14.806Z,56.13
2022-07-25T20:52:47.548Z,56.51
2022-07-25T20:55:20.039Z,56.74
2022-07-25T20:57:52.475Z,57.07
2022-07-25T21:00:28.307Z,57.98
2022-07-25T21:03:01.228Z,58.40
2022-07-25T21:05:34.256Z,58.72
2022-07-25T21:08:04.929Z,59.96
2022-07-25T21:10:37.328Z,60.83
2022-07-25T21:13:09.637Z,61.14
2022-07-25T21:15:42.959Z,62.37
2022-07-25T21:18:15.941Z,62.76
2022-07-25T21:20:54.607Z,64.09
2022-07-25T21:23:27.965Z,64.38
2022-07-25T21:26:00.487Z,64.00
2022-07-25T21:28:32.877Z,64.07
2022-07-25T21:31:06.158Z,64.59
2022-07-25T21:33:38.487Z,65.18
2022-07-25T21:36:12.696Z,65.55
2022-07-25T21:38:45.626Z,66.38
2022-07-25T21:41:18.462Z,66.30
2022-07-25T21:43:49.385Z,66.34
2022-07-25T21:46:22.090Z,67.44
2022-07-25T21:49:12.000Z,67.64
2022-07-25T21:51:45.415Z,68.78
2022-07-25T21:54:18.063Z,69.43
2022-07-25T21:56:50.687Z,72.14
2022-07-25T22:02:31.895Z,71.06
2022-07-25T22:05:04.886Z,71.28
2022-07-25T22:07:37.785Z,71.18
2022-07-25T22:10:14.473Z,71.83
2022-07-25T22:12:46.847Z,72.53
2022-07-25T22:15:19.726Z,72.74
2022-07-25T22:17:53.785Z,72.75
2022-07-25T22:20:26.578Z,72.21
2022-07-25T22:22:59.139Z,73.18
2022-07-25T22:25:31.757Z,72.88
2022-07-25T22:28:05.996Z,71.18
2022-07-25T22:30:42.897Z,72.95
2022-07-25T22:33:15.597Z,72.76
2022-07-25T22:35:48.026Z,73.59
2022-07-25T22:38:21.938Z,71.62
2022-07-25T22:40:54.512Z,73.82
2022-07-25T22:43:56.954Z,72.87
2022-07-25T22:46:20.127Z,74.08
2022-07-25T22:48:52.966Z,73.33
2022-07-25T22:51:26.847Z,72.32
2022-07-25T22:53:59.776Z,73.54
2022-07-25T22:56:35.058Z,74.83
2022-07-25T22:59:11.461Z,74.11
2022-07-25T23:01:43.887Z,73.88
2022-07-25T23:04:16.436Z,72.76
2022-07-25T23:06:48.826Z,74.51
2022-07-25T23:09:21.425Z,73.88
2022-07-25T23:11:56.938Z,74.29
2022-07-25T23:14:31.602Z,73.85
2022-07-25T23:17:20.372Z,72.80
2022-07-25T23:19:54.807Z,75.44
2022-07-25T23:22:28.559Z,76.24
2022-07-25T23:25:01.839Z,75.92
2022-07-25T23:27:34.819Z,75.38
2022-07-25T23:30:08.695Z,75.90
2022-07-25T23:32:41.488Z,76.64
2022-07-25T23:35:14.292Z,73.06
2022-07-25T23:37:46.713Z,72.98
2022-07-25T23:40:19.275Z,75.07
2022-07-25T23:42:51.918Z,73.73
2022-07-25T23:45:25.476Z,72.72
2022-07-25T23:48:01.227Z,73.27
2022-07-25T23:50:33.956Z,72.67
2022-07-25T23:53:06.277Z,73.97
2022-07-25T23:55:38.856Z,74.91
2022-07-25T23:58:11.506Z,73.03
